Time;durP1;ratioP1;P1;durP2;ratioP2;P2;SDS_P1;SDS_P2;PMS_P1;PMS_P2;Temp;Humidity;BMP_temperature;BMP_pressure;BME280_temperature;BME280_humidity;BME280_pressure;Samples;Min_cycle;Max_cycle;Signal;HPM_P1;HPM_P2
2023/12/31 00:01:47;;;;;;;14.90;8.90;;;;;;;;;;5820424;28;20420;-83
2023/12/31 00:04:38;;;;;;;13.57;9.68;;;;;;;;;;5821288;28;20072;-83
2023/12/31 00:07:29;;;;;;;17.17;8.82;;;;;;;;;;5820725;28;20049;-83
2023/12/31 00:10:21;;;;;;;8.90;7.03;;;;;;;;;;5819605;28;20444;-83
2023/12/31 00:13:12;;;;;;;8.55;5.03;;;;;;;;;;5819734;28;20412;-83
2023/12/31 00:16:03;;;;;;;28.05;15.25;;;;;;;;;;5820034;28;20055;-83
2023/12/31 00:18:54;;;;;;;23.83;12.77;;;;;;;;;;5836548;28;20519;-83
2023/12/31 00:21:44;;;;;;;11.43;7.47;;;;;;;;;;5819507;28;20406;-83
2023/12/31 00:24:36;;;;;;;12.88;6.90;;;;;;;;;;5818736;28;20046;-83
2023/12/31 00:27:26;;;;;;;12.02;7.97;;;;;;;;;;5818409;28;20046;-83
2023/12/31 00:30:17;;;;;;;7.43;5.97;;;;;;;;;;5820745;28;20074;-83
2023/12/31 00:33:08;;;;;;;6.75;5.00;;;;;;;;;;5819469;28;20057;-83
2023/12/31 00:36:00;;;;;;;9.77;6.00;;;;;;;;;;5821454;28;20050;-83
2023/12/31 00:38:55;;;;;;;9.57;5.55;;;;;;;;;;5819800;28;20057;-83
2023/12/31 00:41:46;;;;;;;8.98;4.68;;;;;;;;;;5821324;28;20392;-83
2023/12/31 00:44:37;;;;;;;6.75;5.22;;;;;;;;;;5819361;28;20046;-83
2023/12/31 00:47:28;;;;;;;17.75;6.72;;;;;;;;;;5802747;28;20512;-83
2023/12/31 00:50:19;;;;;;;7.38;5.07;;;;;;;;;;5818018;28;20545;-83
2023/12/31 00:53:10;;;;;;;12.07;7.88;;;;;;;;;;5801739;28;20054;-83
2023/12/31 00:56:02;;;;;;;12.93;5.53;;;;;;;;;;5817932;28;20085;-83
2023/12/31 00:58:52;;;;;;;9.68;6.68;;;;;;;;;;5819585;28;20073;-83
2023/12/31 01:01:43;;;;;;;6.85;4.80;;;;;;;;;;5827481;28;20052;-83
2023/12/31 01:04:36;;;;;;;11.10;4.97;;;;;;;;;;5849969;28;20046;-83
2023/12/31 01:07:27;;;;;;;9.70;4.40;;;;;;;;;;5840373;28;20064;-83
2023/12/31 01:10:18;;;;;;;8.55;4.95;;;;;;;;;;5840521;28;20060;-83
2023/12/31 01:13:08;;;;;;;5.88;4.22;;;;;;;;;;5841622;28;20046;-82
2023/12/31 01:15:59;;;;;;;12.48;4.35;;;;;;;;;;5840691;28;20042;-82
2023/12/31 01:18:50;;;;;;;11.68;5.43;;;;;;;;;;5841511;28;20057;-82
2023/12/31 01:21:41;;;;;;;12.18;5.38;;;;;;;;;;5840003;28;20092;-82
2023/12/31 01:24:32;;;;;;;7.45;4.97;;;;;;;;;;5840006;28;20042;-81
2023/12/31 01:27:22;;;;;;;14.25;5.60;;;;;;;;;;5839881;28;20042;-81
2023/12/31 01:30:13;;;;;;;7.65;4.40;;;;;;;;;;5840228;28;20064;-81
2023/12/31 01:33:04;;;;;;;13.45;4.60;;;;;;;;;;5840865;28;20058;-81
2023/12/31 01:35:55;;;;;;;19.08;6.03;;;;;;;;;;5840072;28;20046;-81
2023/12/31 01:38:46;;;;;;;13.18;6.15;;;;;;;;;;5855493;28;20045;-81
2023/12/31 01:41:38;;;;;;;44.03;10.35;;;;;;;;;;5840072;28;20521;-81
2023/12/31 01:44:29;;;;;;;36.97;8.18;;;;;;;;;;5839385;28;20164;-81
2023/12/31 01:47:19;;;;;;;29.08;8.20;;;;;;;;;;5839383;28;20052;-81
2023/12/31 01:50:13;;;;;;;52.33;9.15;;;;;;;;;;5855751;28;20173;-81
2023/12/31 01:53:06;;;;;;;45.58;6.95;;;;;;;;;;5839644;28;20129;-80
2023/12/31 01:55:58;;;;;;;18.02;6.85;;;;;;;;;;5839653;28;20133;-81
2023/12/31 01:58:49;;;;;;;12.82;6.57;;;;;;;;;;5855655;28;20046;-81
2023/12/31 02:01:40;;;;;;;32.83;9.50;;;;;;;;;;5855576;28;20050;-81
2023/12/31 02:04:33;;;;;;;27.17;7.32;;;;;;;;;;5840607;28;20523;-81
2023/12/31 02:07:25;;;;;;;69.70;6.72;;;;;;;;;;5839295;28;20041;-80
2023/12/31 02:10:16;;;;;;;39.83;5.50;;;;;;;;;;5839405;28;20578;-80
2023/12/31 02:13:07;;;;;;;9.68;5.50;;;;;;;;;;5822975;28;20460;-80
2023/12/31 02:15:58;;;;;;;16.15;6.57;;;;;;;;;;5839523;28;20054;-80
2023/12/31 02:18:48;;;;;;;8.80;5.95;;;;;;;;;;5838792;28;20042;-81
2023/12/31 02:21:40;;;;;;;11.40;5.15;;;;;;;;;;5839004;28;20127;-81
2023/12/31 02:24:42;;;;;;;11.15;5.40;;;;;;;;;;5839011;28;20046;-81
2023/12/31 02:27:33;;;;;;;11.40;3.92;;;;;;;;;;5839066;28;20049;-81
2023/12/31 02:30:25;;;;;;;11.05;5.68;;;;;;;;;;5840137;28;20046;-81
2023/12/31 02:33:16;;;;;;;7.63;5.00;;;;;;;;;;5839876;28;20046;-81
2023/12/31 02:36:07;;;;;;;10.43;4.70;;;;;;;;;;5838740;28;20477;-81
2023/12/31 02:38:58;;;;;;;7.43;4.65;;;;;;;;;;5839558;28;20511;-81
2023/12/31 02:41:49;;;;;;;8.18;3.67;;;;;;;;;;5822927;28;20046;-81
2023/12/31 02:44:40;;;;;;;8.00;4.72;;;;;;;;;;5840119;28;20730;-81
2023/12/31 02:47:31;;;;;;;23.90;5.32;;;;;;;;;;5838687;28;20079;-81
2023/12/31 02:50:22;;;;;;;8.07;4.63;;;;;;;;;;5839632;28;20046;-81
2023/12/31 02:53:13;;;;;;;8.68;4.85;;;;;;;;;;5838170;28;20077;-81
2023/12/31 02:56:04;;;;;;;10.40;4.85;;;;;;;;;;5838775;28;20056;-81
2023/12/31 02:58:55;;;;;;;5.72;3.60;;;;;;;;;;5840399;28;20758;-81
2023/12/31 03:01:46;;;;;;;9.52;4.03;;;;;;;;;;5838548;28;20061;-80
2023/12/31 03:04:42;;;;;;;5.25;3.20;;;;;;;;;;5838527;28;20044;-81
2023/12/31 03:07:34;;;;;;;7.28;3.70;;;;;;;;;;5839805;28;20057;-81
2023/12/31 03:10:27;;;;;;;6.07;3.97;;;;;;;;;;5838561;28;20085;-81
2023/12/31 03:13:18;;;;;;;8.52;4.15;;;;;;;;;;5838412;28;20096;-81
2023/12/31 03:16:09;;;;;;;10.50;3.13;;;;;;;;;;5838244;28;20054;-81
2023/12/31 03:19:00;;;;;;;11.75;3.60;;;;;;;;;;5840294;28;20121;-81
2023/12/31 03:21:51;;;;;;;12.18;4.45;;;;;;;;;;5862692;28;20524;-81
2023/12/31 03:24:43;;;;;;;5.18;3.95;;;;;;;;;;5860982;28;20041;-81
2023/12/31 03:27:34;;;;;;;9.80;4.38;;;;;;;;;;5824133;28;20053;-81
2023/12/31 03:30:24;;;;;;;11.75;4.57;;;;;;;;;;5838241;28;20492;-81
2023/12/31 03:33:15;;;;;;;5.70;3.50;;;;;;;;;;5837983;28;20066;-81
2023/12/31 03:36:06;;;;;;;6.65;4.00;;;;;;;;;;5838110;28;20424;-81
2023/12/31 03:38:57;;;;;;;7.63;3.17;;;;;;;;;;5838558;28;20068;-81
2023/12/31 03:41:48;;;;;;;9.80;4.88;;;;;;;;;;5854536;28;20046;-81
2023/12/31 03:44:39;;;;;;;9.82;5.45;;;;;;;;;;5838289;28;20404;-81
2023/12/31 03:47:30;;;;;;;8.70;5.55;;;;;;;;;;5837823;28;20056;-81
2023/12/31 03:50:20;;;;;;;9.90;5.70;;;;;;;;;;5838122;28;20049;-81
2023/12/31 03:53:11;;;;;;;10.05;4.15;;;;;;;;;;5837921;28;20160;-80
2023/12/31 03:56:03;;;;;;;10.30;4.65;;;;;;;;;;5839464;28;20522;-80
2023/12/31 03:58:53;;;;;;;11.80;5.75;;;;;;;;;;5839687;28;20065;-81
2023/12/31 04:01:45;;;;;;;7.78;3.78;;;;;;;;;;5838117;28;20124;-81
2023/12/31 04:04:39;;;;;;;20.50;4.28;;;;;;;;;;5858415;28;20072;-81
2023/12/31 04:07:30;;;;;;;10.55;5.15;;;;;;;;;;5843267;28;20133;-81
2023/12/31 04:10:21;;;;;;;7.07;4.03;;;;;;;;;;5858617;28;20077;-80
2023/12/31 04:13:11;;;;;;;8.60;4.88;;;;;;;;;;5858335;28;20093;-81
2023/12/31 04:16:03;;;;;;;9.70;4.40;;;;;;;;;;5842135;28;20175;-80
2023/12/31 04:18:54;;;;;;;9.05;4.50;;;;;;;;;;5843778;28;20056;-80
2023/12/31 04:21:44;;;;;;;7.95;5.30;;;;;;;;;;5843103;28;20046;-80
2023/12/31 04:24:35;;;;;;;9.88;5.60;;;;;;;;;;5843093;28;20495;-80
2023/12/31 04:27:26;;;;;;;7.75;4.50;;;;;;;;;;5841555;28;20516;-80
2023/12/31 04:30:18;;;;;;;8.38;4.32;;;;;;;;;;5841807;28;20056;-80
2023/12/31 04:33:09;;;;;;;11.18;4.15;;;;;;;;;;5841248;28;20120;-81
2023/12/31 04:36:04;;;;;;;9.63;5.45;;;;;;;;;;5841993;28;20446;-81
2023/12/31 04:38:55;;;;;;;7.20;4.57;;;;;;;;;;5866109;28;20049;-81
2023/12/31 04:41:45;;;;;;;5.13;3.83;;;;;;;;;;5864278;28;20053;-81
2023/12/31 04:44:36;;;;;;;6.30;3.85;;;;;;;;;;5864459;28;20056;-80
2023/12/31 04:47:27;;;;;;;14.20;5.78;;;;;;;;;;5864218;28;20048;-80
2023/12/31 04:50:18;;;;;;;10.77;6.38;;;;;;;;;;5864375;28;20484;-80
2023/12/31 04:53:09;;;;;;;11.65;7.15;;;;;;;;;;5864279;28;20584;-82
2023/12/31 04:55:59;;;;;;;8.52;5.63;;;;;;;;;;5864663;28;20045;-80
2023/12/31 04:58:53;;;;;;;20.75;8.63;;;;;;;;;;5865524;28;20045;-80
2023/12/31 05:01:43;;;;;;;26.13;11.60;;;;;;;;;;5880186;28;20049;-80
2023/12/31 05:04:34;;;;;;;14.25;6.55;;;;;;;;;;5861856;28;20064;-81
2023/12/31 05:07:25;;;;;;;6.85;4.75;;;;;;;;;;5863761;28;20049;-81
2023/12/31 05:10:16;;;;;;;6.68;4.43;;;;;;;;;;5880499;28;20077;-80
2023/12/31 05:13:07;;;;;;;7.47;4.50;;;;;;;;;;5863696;28;20192;-80
2023/12/31 05:15:57;;;;;;;4.70;3.92;;;;;;;;;;5863449;28;20048;-81
2023/12/31 05:18:52;;;;;;;9.27;3.58;;;;;;;;;;5863682;28;20049;-80
2023/12/31 05:21:43;;;;;;;9.18;4.10;;;;;;;;;;5825646;28;20125;-80
2023/12/31 05:24:34;;;;;;;8.50;4.70;;;;;;;;;;5840464;28;20408;-80
2023/12/31 05:27:25;;;;;;;10.55;4.10;;;;;;;;;;5840385;28;20459;-80
2023/12/31 05:30:15;;;;;;;15.57;6.60;;;;;;;;;;5840722;28;20049;-83
2023/12/31 05:33:07;;;;;;;13.88;4.90;;;;;;;;;;5841418;28;20060;-80
2023/12/31 05:35:58;;;;;;;8.85;5.88;;;;;;;;;;5825225;28;20109;-81
2023/12/31 05:38:49;;;;;;;8.90;5.18;;;;;;;;;;5840283;28;20050;-81
2023/12/31 05:41:40;;;;;;;10.55;5.07;;;;;;;;;;5840307;28;20119;-80
2023/12/31 05:44:30;;;;;;;7.25;4.20;;;;;;;;;;5839912;28;20042;-80
2023/12/31 05:47:21;;;;;;;11.20;5.32;;;;;;;;;;5856489;28;20042;-81
2023/12/31 05:50:32;;;;;;;14.43;4.50;;;;;;;;;;5841330;28;20200;-81
2023/12/31 05:53:23;;;;;;;20.30;4.85;;;;;;;;;;5839704;28;20172;-80
2023/12/31 05:56:14;;;;;;;4.80;3.45;;;;;;;;;;5841057;28;20531;-80
2023/12/31 05:59:04;;;;;;;6.05;3.42;;;;;;;;;;5839840;28;20499;-81
2023/12/31 06:01:55;;;;;;;5.78;3.80;;;;;;;;;;5840636;28;20522;-80
2023/12/31 06:04:46;;;;;;;8.68;3.30;;;;;;;;;;5855883;28;20499;-80
2023/12/31 06:07:37;;;;;;;6.22;4.65;;;;;;;;;;5839693;28;20072;-80
2023/12/31 06:10:28;;;;;;;4.90;3.28;;;;;;;;;;5839456;28;20377;-81
2023/12/31 06:13:19;;;;;;;9.57;4.05;;;;;;;;;;5839576;28;20045;-81
2023/12/31 06:16:10;;;;;;;5.57;3.17;;;;;;;;;;5823103;28;20058;-80
2023/12/31 06:19:00;;;;;;;4.88;3.63;;;;;;;;;;5839635;28;20400;-80
2023/12/31 06:21:52;;;;;;;5.47;3.70;;;;;;;;;;5862198;28;20045;-80
2023/12/31 06:24:43;;;;;;;14.05;4.97;;;;;;;;;;5823687;28;20045;-80
2023/12/31 06:27:33;;;;;;;5.65;3.05;;;;;;;;;;5838624;28;20045;-80
2023/12/31 06:30:24;;;;;;;5.60;3.25;;;;;;;;;;5838832;28;20046;-80
2023/12/31 06:33:15;;;;;;;9.07;4.78;;;;;;;;;;5838661;28;20110;-81
2023/12/31 06:36:06;;;;;;;5.43;3.45;;;;;;;;;;5855651;28;20531;-80
2023/12/31 06:38:57;;;;;;;5.63;3.17;;;;;;;;;;5840858;28;20060;-80
2023/12/31 06:41:48;;;;;;;10.43;4.70;;;;;;;;;;5839108;28;20042;-80
2023/12/31 06:44:39;;;;;;;13.45;5.57;;;;;;;;;;5838876;28;20045;-81
2023/12/31 06:47:30;;;;;;;10.18;6.15;;;;;;;;;;5839810;28;20037;-81
2023/12/31 06:50:21;;;;;;;19.33;7.18;;;;;;;;;;5854788;28;20496;-80
2023/12/31 06:53:11;;;;;;;22.85;7.93;;;;;;;;;;5838429;28;20459;-81
2023/12/31 06:56:09;;;;;;;8.13;4.68;;;;;;;;;;5838585;28;20056;-80
2023/12/31 06:58:59;;;;;;;4.93;4.00;;;;;;;;;;5822795;28;20041;-81
2023/12/31 07:01:50;;;;;;;20.23;11.32;;;;;;;;;;5838397;28;20087;-81
2023/12/31 07:04:41;;;;;;;20.88;9.23;;;;;;;;;;5838367;28;20061;-80
2023/12/31 07:07:32;;;;;;;7.00;4.47;;;;;;;;;;5839546;28;20054;-81
2023/12/31 07:10:23;;;;;;;16.00;6.95;;;;;;;;;;5838359;28;20403;-81
2023/12/31 07:13:14;;;;;;;19.02;8.57;;;;;;;;;;5838251;28;20089;-81
2023/12/31 07:16:05;;;;;;;25.50;9.98;;;;;;;;;;5821891;28;20123;-80
2023/12/31 07:18:56;;;;;;;21.15;9.32;;;;;;;;;;5840093;28;20463;-80
2023/12/31 07:21:47;;;;;;;13.35;8.35;;;;;;;;;;5838107;28;20042;-80
2023/12/31 07:24:39;;;;;;;12.00;7.18;;;;;;;;;;5838023;28;20065;-81
2023/12/31 07:27:30;;;;;;;13.00;7.20;;;;;;;;;;5837979;28;20038;-80
2023/12/31 07:30:21;;;;;;;9.43;5.57;;;;;;;;;;5822000;28;20042;-80
2023/12/31 07:33:12;;;;;;;12.13;6.97;;;;;;;;;;5821672;28;20050;-80
2023/12/31 07:36:03;;;;;;;12.30;8.27;;;;;;;;;;5837794;28;20045;-80
2023/12/31 07:38:54;;;;;;;26.67;12.32;;;;;;;;;;5841435;28;20045;-80
2023/12/31 07:41:46;;;;;;;19.58;9.68;;;;;;;;;;5826061;28;20196;-81
2023/12/31 07:44:37;;;;;;;16.88;7.43;;;;;;;;;;5842249;28;20061;-80
2023/12/31 07:47:28;;;;;;;9.15;4.60;;;;;;;;;;5842058;28;20049;-80
2023/12/31 07:50:22;;;;;;;8.32;4.20;;;;;;;;;;5842117;28;20112;-80
2023/12/31 07:53:13;;;;;;;8.60;5.40;;;;;;;;;;5842010;28;20164;-80
2023/12/31 07:56:05;;;;;;;8.75;4.60;;;;;;;;;;5843146;28;20054;-80
2023/12/31 07:58:58;;;;;;;9.25;4.07;;;;;;;;;;5842482;28;20550;-81
2023/12/31 08:01:49;;;;;;;13.88;8.30;;;;;;;;;;5825964;28;20446;-81
2023/12/31 08:04:39;;;;;;;8.65;4.45;;;;;;;;;;5842002;28;20525;-81
2023/12/31 08:07:30;;;;;;;11.00;5.97;;;;;;;;;;5842157;28;20470;-81
2023/12/31 08:10:22;;;;;;;9.18;5.70;;;;;;;;;;5843337;28;20756;-81
2023/12/31 08:13:13;;;;;;;7.10;4.60;;;;;;;;;;5841634;28;20049;-81
2023/12/31 08:16:05;;;;;;;8.02;5.38;;;;;;;;;;5842857;28;20046;-81
2023/12/31 08:18:56;;;;;;;8.20;4.07;;;;;;;;;;5843520;28;20064;-81
2023/12/31 08:21:47;;;;;;;8.60;4.20;;;;;;;;;;5841885;28;20416;-81
2023/12/31 08:24:38;;;;;;;9.55;4.20;;;;;;;;;;5841671;28;20050;-81
2023/12/31 08:27:29;;;;;;;4.82;3.97;;;;;;;;;;5842604;28;20042;-81
2023/12/31 08:30:20;;;;;;;7.78;4.22;;;;;;;;;;5841318;28;20050;-81
2023/12/31 08:33:11;;;;;;;19.23;9.25;;;;;;;;;;5825000;28;20192;-81
2023/12/31 08:36:02;;;;;;;7.72;5.45;;;;;;;;;;5841185;28;20049;-81
2023/12/31 08:38:52;;;;;;;10.27;5.95;;;;;;;;;;5841419;28;20084;-81
2023/12/31 08:41:43;;;;;;;12.95;5.97;;;;;;;;;;5858301;28;20176;-80
2023/12/31 08:44:34;;;;;;;7.65;4.95;;;;;;;;;;5840936;28;20061;-81
2023/12/31 08:47:35;;;;;;;5.50;3.60;;;;;;;;;;5842392;28;20042;-80
2023/12/31 08:50:26;;;;;;;6.18;4.07;;;;;;;;;;5841069;28;20045;-80
2023/12/31 08:53:17;;;;;;;16.10;5.20;;;;;;;;;;5842190;28;20059;-80
2023/12/31 08:56:08;;;;;;;11.90;4.43;;;;;;;;;;5840933;28;20042;-80
2023/12/31 08:58:58;;;;;;;6.32;3.15;;;;;;;;;;5825526;28;20046;-80
2023/12/31 09:01:49;;;;;;;3.95;3.25;;;;;;;;;;5842144;28;20451;-80
2023/12/31 09:04:40;;;;;;;9.55;4.78;;;;;;;;;;5840970;28;20472;-80
2023/12/31 09:07:34;;;;;;;12.65;5.80;;;;;;;;;;5840678;28;20103;-80
2023/12/31 09:10:25;;;;;;;11.50;5.50;;;;;;;;;;5840915;28;20050;-80
2023/12/31 09:13:17;;;;;;;6.57;3.88;;;;;;;;;;5824866;28;20061;-80
2023/12/31 09:16:08;;;;;;;8.60;3.03;;;;;;;;;;5840155;28;20037;-80
2023/12/31 09:18:59;;;;;;;6.88;3.08;;;;;;;;;;5842104;28;20049;-80
2023/12/31 09:21:50;;;;;;;7.15;4.35;;;;;;;;;;5840365;28;20052;-80
2023/12/31 09:24:41;;;;;;;4.97;4.28;;;;;;;;;;5840472;28;20045;-80
2023/12/31 09:27:32;;;;;;;20.02;11.70;;;;;;;;;;5841257;28;20042;-80
2023/12/31 09:30:23;;;;;;;6.05;5.05;;;;;;;;;;5839883;28;20049;-80
2023/12/31 09:33:14;;;;;;;6.20;4.57;;;;;;;;;;5839768;28;20045;-80
2023/12/31 09:36:05;;;;;;;6.28;5.68;;;;;;;;;;5840988;28;20042;-80
2023/12/31 09:38:56;;;;;;;7.22;5.25;;;;;;;;;;5856433;28;20050;-80
2023/12/31 09:41:52;;;;;;;8.07;4.97;;;;;;;;;;5855818;28;20046;-80
2023/12/31 09:44:44;;;;;;;4.75;2.83;;;;;;;;;;5840955;28;20053;-80
2023/12/31 09:47:36;;;;;;;5.90;4.13;;;;;;;;;;5840840;28;20050;-80
2023/12/31 09:50:27;;;;;;;7.18;6.40;;;;;;;;;;5839535;28;20050;-80
2023/12/31 09:53:22;;;;;;;9.50;6.88;;;;;;;;;;5823661;28;20050;-79
2023/12/31 09:56:16;;;;;;;8.73;6.22;;;;;;;;;;5823305;28;20050;-80
2023/12/31 09:59:07;;;;;;;8.48;7.25;;;;;;;;;;5840562;28;20057;-79
2023/12/31 10:02:04;;;;;;;9.65;7.20;;;;;;;;;;5839108;28;20092;-80
2023/12/31 10:04:55;;;;;;;17.42;7.07;;;;;;;;;;5839491;28;20092;-80
2023/12/31 10:07:47;;;;;;;10.57;8.10;;;;;;;;;;5840167;28;20053;-80
2023/12/31 10:10:39;;;;;;;15.55;9.90;;;;;;;;;;5855275;28;20064;-80
2023/12/31 10:13:31;;;;;;;21.83;13.50;;;;;;;;;;5823072;28;20042;-79
2023/12/31 10:16:22;;;;;;;20.60;6.55;;;;;;;;;;5822764;28;20108;-79
2023/12/31 10:19:14;;;;;;;10.50;6.72;;;;;;;;;;5838908;28;20133;-80
2023/12/31 10:22:07;;;;;;;4.30;2.75;;;;;;;;;;5838945;28;20053;-79
2023/12/31 10:25:18;;;;;;;6.80;3.60;;;;;;;;;;5839536;28;20041;-79
2023/12/31 10:28:09;;;;;;;6.25;2.65;;;;;;;;;;5839703;28;20081;-79
2023/12/31 10:30:59;;;;;;;8.32;4.93;;;;;;;;;;5822957;28;20049;-79
2023/12/31 10:33:50;;;;;;;16.23;10.10;;;;;;;;;;5822603;28;20046;-79
2023/12/31 10:36:44;;;;;;;13.05;7.00;;;;;;;;;;5838597;28;20072;-79
2023/12/31 10:39:36;;;;;;;26.95;15.05;;;;;;;;;;5839933;28;20716;-79
2023/12/31 10:42:29;;;;;;;18.35;11.90;;;;;;;;;;5838719;28;20121;-80
2023/12/31 10:45:20;;;;;;;31.00;17.50;;;;;;;;;;5838529;28;20057;-79
2023/12/31 10:48:12;;;;;;;26.55;17.95;;;;;;;;;;5838307;28;20076;-79
2023/12/31 10:51:07;;;;;;;25.63;12.05;;;;;;;;;;5839973;28;20519;-79
2023/12/31 10:54:09;;;;;;;18.70;9.82;;;;;;;;;;5838574;28;20046;-79
2023/12/31 10:57:01;;;;;;;17.63;11.73;;;;;;;;;;5839117;28;20057;-79
2023/12/31 10:59:53;;;;;;;15.38;10.30;;;;;;;;;;5853585;28;20388;-79
2023/12/31 11:02:45;;;;;;;7.95;5.70;;;;;;;;;;5877559;28;20089;-79
2023/12/31 11:05:38;;;;;;;7.93;4.13;;;;;;;;;;5861436;28;20045;-79
2023/12/31 11:08:29;;;;;;;14.43;6.55;;;;;;;;;;5861043;28;20119;-79
2023/12/31 11:11:20;;;;;;;3.97;3.58;;;;;;;;;;5860589;28;20060;-79
2023/12/31 11:14:13;;;;;;;4.20;1.75;;;;;;;;;;5862113;28;20499;-79
2023/12/31 11:17:44;;;;;;;3.03;2.28;;;;;;;;;;5862422;28;20045;-79
2023/12/31 11:20:52;;;;;;;3.40;2.35;;;;;;;;;;5858635;28;20423;-79
2023/12/31 11:24:13;;;;;;;4.55;2.45;;;;;;;;;;5861000;28;20041;-79
2023/12/31 11:27:15;;;;;;;3.05;2.17;;;;;;;;;;5860614;28;20051;-80
2023/12/31 11:30:07;;;;;;;5.05;2.33;;;;;;;;;;5860936;28;20091;-79
2023/12/31 11:32:58;;;;;;;2.42;1.85;;;;;;;;;;5862715;28;20052;-79
2023/12/31 11:35:52;;;;;;;4.95;1.83;;;;;;;;;;5861272;28;20118;-80
2023/12/31 11:38:56;;;;;;;2.80;2.17;;;;;;;;;;5859638;28;20049;-80
2023/12/31 11:41:52;;;;;;;3.97;3.08;;;;;;;;;;5876885;28;20050;-79
2023/12/31 11:44:44;;;;;;;2.97;2.15;;;;;;;;;;5862155;28;20046;-80
2023/12/31 11:47:42;;;;;;;2.50;2.15;;;;;;;;;;5876624;28;20049;-79
2023/12/31 11:50:36;;;;;;;5.10;3.40;;;;;;;;;;5824453;28;20468;-80
2023/12/31 11:53:30;;;;;;;3.25;2.83;;;;;;;;;;5854233;28;20050;-80
2023/12/31 11:56:21;;;;;;;1.80;1.70;;;;;;;;;;5853659;28;20189;-80
2023/12/31 11:59:12;;;;;;;5.13;3.25;;;;;;;;;;5837671;28;20057;-79
2023/12/31 12:02:05;;;;;;;2.08;1.80;;;;;;;;;;5837630;28;20518;-79
2023/12/31 12:05:00;;;;;;;1.70;1.60;;;;;;;;;;5839395;28;20096;-79
2023/12/31 12:07:52;;;;;;;4.22;2.30;;;;;;;;;;5853000;28;20045;-79
2023/12/31 12:10:43;;;;;;;7.35;3.67;;;;;;;;;;5860490;28;20045;-79
2023/12/31 12:13:35;;;;;;;17.67;9.55;;;;;;;;;;5844107;28;20057;-80
2023/12/31 12:16:30;;;;;;;42.35;22.45;;;;;;;;;;5860354;28;20049;-79
2023/12/31 12:19:25;;;;;;;9.15;6.90;;;;;;;;;;5860513;28;20171;-80
2023/12/31 12:22:16;;;;;;;10.13;4.13;;;;;;;;;;5828106;28;20108;-80
2023/12/31 12:25:07;;;;;;;37.67;16.65;;;;;;;;;;5863761;28;20096;-79
2023/12/31 12:27:58;;;;;;;13.85;6.43;;;;;;;;;;5881288;28;20063;-80
2023/12/31 12:30:49;;;;;;;6.70;3.45;;;;;;;;;;5864355;28;20038;-80
2023/12/31 12:33:43;;;;;;;5.30;3.72;;;;;;;;;;5864274;28;20451;-79
2023/12/31 12:36:34;;;;;;;13.68;5.57;;;;;;;;;;5864325;28;20052;-80
2023/12/31 12:39:25;;;;;;;63.05;30.27;;;;;;;;;;5864473;28;20049;-79
2023/12/31 12:42:16;;;;;;;10.05;3.28;;;;;;;;;;5865552;28;20064;-80
2023/12/31 12:45:09;;;;;;;146.07;71.75;;;;;;;;;;5864101;28;20532;-80
2023/12/31 12:48:05;;;;;;;27.20;12.32;;;;;;;;;;5881185;28;20100;-80
2023/12/31 12:50:56;;;;;;;48.05;27.85;;;;;;;;;;5864270;28;20045;-80
2023/12/31 12:53:46;;;;;;;70.93;34.95;;;;;;;;;;5864042;28;20053;-80
2023/12/31 12:56:37;;;;;;;34.40;17.30;;;;;;;;;;5864293;28;20623;-80
2023/12/31 12:59:28;;;;;;;21.50;10.18;;;;;;;;;;5863894;28;20129;-80
2023/12/31 13:02:19;;;;;;;13.15;8.98;;;;;;;;;;5843439;28;20515;-79
2023/12/31 13:05:10;;;;;;;11.57;5.65;;;;;;;;;;5863476;28;20131;-80
2023/12/31 13:08:00;;;;;;;4.25;3.38;;;;;;;;;;5863408;28;20053;-79
2023/12/31 13:10:53;;;;;;;8.73;4.60;;;;;;;;;;5865260;28;20053;-80
2023/12/31 13:13:45;;;;;;;6.07;4.57;;;;;;;;;;5867286;28;20124;-80
2023/12/31 13:16:36;;;;;;;6.28;4.50;;;;;;;;;;5863749;28;20048;-80
2023/12/31 13:19:39;;;;;;;17.48;7.95;;;;;;;;;;5864208;28;20434;-80
2023/12/31 13:22:31;;;;;;;6.72;4.70;;;;;;;;;;5866656;28;20056;-79
2023/12/31 13:25:22;;;;;;;13.25;5.47;;;;;;;;;;5867714;28;20046;-80
2023/12/31 13:28:13;;;;;;;16.92;6.63;;;;;;;;;;5865102;28;20526;-79
2023/12/31 13:31:04;;;;;;;8.65;5.75;;;;;;;;;;5863000;28;20049;-79
2023/12/31 13:33:55;;;;;;;13.65;6.63;;;;;;;;;;5863150;28;20045;-80
2023/12/31 13:36:49;;;;;;;5.72;4.03;;;;;;;;;;5863456;28;20124;-80
2023/12/31 13:39:40;;;;;;;8.63;4.72;;;;;;;;;;5864949;28;20107;-80
2023/12/31 13:42:31;;;;;;;8.93;5.00;;;;;;;;;;5863936;28;20049;-79
2023/12/31 13:45:21;;;;;;;5.75;4.03;;;;;;;;;;5862745;28;20052;-80
2023/12/31 13:48:13;;;;;;;5.75;5.05;;;;;;;;;;5879035;28;20045;-79
2023/12/31 13:51:08;;;;;;;9.13;4.53;;;;;;;;;;5863794;28;20069;-79
2023/12/31 13:53:59;;;;;;;5.03;3.47;;;;;;;;;;5863298;28;20118;-80
2023/12/31 13:56:50;;;;;;;8.40;5.07;;;;;;;;;;5862306;28;20495;-80
2023/12/31 13:59:41;;;;;;;9.88;5.18;;;;;;;;;;5862293;28;20064;-80
2023/12/31 14:02:31;;;;;;;5.82;5.13;;;;;;;;;;5862445;28;20045;-80
2023/12/31 14:05:22;;;;;;;5.93;5.25;;;;;;;;;;5863517;28;20041;-80
2023/12/31 14:08:16;;;;;;;12.43;8.48;;;;;;;;;;5862291;28;20470;-79
2023/12/31 14:11:07;;;;;;;13.23;8.80;;;;;;;;;;5863408;28;20053;-80
2023/12/31 14:13:58;;;;;;;21.30;15.00;;;;;;;;;;5862452;28;20057;-80
2023/12/31 14:16:49;;;;;;;19.88;13.15;;;;;;;;;;5861835;28;20517;-80
2023/12/31 14:19:40;;;;;;;18.60;14.25;;;;;;;;;;5861848;28;20083;-80
2023/12/31 14:22:31;;;;;;;12.27;9.70;;;;;;;;;;5860034;28;20056;-79
2023/12/31 14:25:21;;;;;;;37.47;24.10;;;;;;;;;;5878279;28;20042;-79
2023/12/31 14:28:12;;;;;;;23.83;15.15;;;;;;;;;;5878727;28;20099;-79
2023/12/31 14:31:03;;;;;;;15.32;9.43;;;;;;;;;;5855124;28;20049;-79
2023/12/31 14:33:54;;;;;;;11.93;6.35;;;;;;;;;;5862152;28;20050;-80
2023/12/31 14:36:55;;;;;;;24.98;17.77;;;;;;;;;;5863348;28;20179;-80
2023/12/31 14:39:46;;;;;;;9.63;7.57;;;;;;;;;;5861921;28;20041;-80
2023/12/31 14:42:37;;;;;;;9.52;7.97;;;;;;;;;;5861661;28;20049;-80
2023/12/31 14:45:28;;;;;;;9.35;7.22;;;;;;;;;;5861179;28;20192;-80
2023/12/31 14:48:19;;;;;;;5.82;5.22;;;;;;;;;;5861646;28;20507;-79
2023/12/31 14:51:10;;;;;;;6.47;5.18;;;;;;;;;;5861476;28;20610;-79
2023/12/31 14:54:00;;;;;;;10.43;4.82;;;;;;;;;;5861216;28;20056;-79
2023/12/31 14:56:51;;;;;;;8.45;5.90;;;;;;;;;;5861771;28;20046;-79
2023/12/31 14:59:42;;;;;;;10.40;6.00;;;;;;;;;;5862565;28;20041;-79
2023/12/31 15:02:33;;;;;;;8.45;5.72;;;;;;;;;;5860883;28;20045;-79
2023/12/31 15:05:34;;;;;;;4.80;4.20;;;;;;;;;;5861049;28;20125;-80
2023/12/31 15:08:25;;;;;;;10.77;4.82;;;;;;;;;;5861027;28;20043;-79
2023/12/31 15:11:16;;;;;;;5.53;4.32;;;;;;;;;;5877706;28;20069;-79
2023/12/31 15:14:23;;;;;;;4.47;3.70;;;;;;;;;;5861379;28;20135;-80
2023/12/31 15:17:13;;;;;;;17.92;8.32;;;;;;;;;;5861075;28;20049;-80
2023/12/31 15:20:05;;;;;;;19.15;11.32;;;;;;;;;;5860946;28;20089;-79
2023/12/31 15:22:58;;;;;;;11.82;7.45;;;;;;;;;;5863074;28;20583;-80
2023/12/31 15:25:50;;;;;;;4.60;4.10;;;;;;;;;;5860895;28;20081;-80
2023/12/31 15:28:41;;;;;;;10.40;4.72;;;;;;;;;;5860963;28;20069;-80
2023/12/31 15:31:34;;;;;;;7.47;3.85;;;;;;;;;;5877299;28;20041;-80
2023/12/31 15:34:25;;;;;;;5.05;3.60;;;;;;;;;;5860826;28;20106;-80
2023/12/31 15:37:16;;;;;;;6.03;2.75;;;;;;;;;;5860872;28;20301;-80
2023/12/31 15:40:08;;;;;;;3.50;2.80;;;;;;;;;;5860590;28;20045;-79
2023/12/31 15:42:59;;;;;;;6.13;4.18;;;;;;;;;;5862606;28;20127;-80
2023/12/31 15:45:50;;;;;;;8.32;4.50;;;;;;;;;;5852536;28;20511;-80
2023/12/31 15:48:41;;;;;;;9.55;5.40;;;;;;;;;;5860501;28;20045;-80
2023/12/31 15:51:32;;;;;;;6.00;5.20;;;;;;;;;;5823675;28;20099;-80
2023/12/31 15:54:23;;;;;;;9.00;4.80;;;;;;;;;;5837545;28;20449;-79
2023/12/31 15:57:14;;;;;;;25.65;15.50;;;;;;;;;;5837652;28;20045;-79
2023/12/31 16:00:05;;;;;;;15.85;9.73;;;;;;;;;;5841070;28;20050;-79
2023/12/31 16:02:56;;;;;;;6.88;5.47;;;;;;;;;;5843714;28;20053;-80
2023/12/31 16:05:47;;;;;;;5.30;3.65;;;;;;;;;;5858184;28;20499;-80
2023/12/31 16:08:38;;;;;;;3.95;3.65;;;;;;;;;;5843215;28;20053;-80
2023/12/31 16:11:29;;;;;;;9.60;8.45;;;;;;;;;;5843188;28;20492;-80
2023/12/31 16:14:19;;;;;;;6.18;4.43;;;;;;;;;;5842988;28;20057;-80
2023/12/31 16:17:10;;;;;;;6.20;4.85;;;;;;;;;;5841676;28;20054;-79
2023/12/31 16:20:01;;;;;;;5.63;4.53;;;;;;;;;;5841632;28;20119;-79
2023/12/31 16:22:52;;;;;;;6.07;4.07;;;;;;;;;;5843370;28;20046;-80
2023/12/31 16:25:43;;;;;;;4.32;3.58;;;;;;;;;;5841252;28;20069;-80
2023/12/31 16:28:33;;;;;;;9.18;6.55;;;;;;;;;;5825110;28;20052;-80
2023/12/31 16:31:25;;;;;;;9.13;3.90;;;;;;;;;;5841294;28;20042;-80
2023/12/31 16:34:16;;;;;;;7.20;5.40;;;;;;;;;;5841234;28;20153;-80
2023/12/31 16:37:07;;;;;;;11.38;5.78;;;;;;;;;;5857384;28;20149;-79
2023/12/31 16:39:58;;;;;;;8.63;4.78;;;;;;;;;;5857634;28;20042;-80
2023/12/31 16:42:48;;;;;;;9.25;6.38;;;;;;;;;;5841104;28;20046;-80
2023/12/31 16:45:39;;;;;;;7.40;4.85;;;;;;;;;;5842300;28;20046;-80
2023/12/31 16:48:30;;;;;;;10.20;7.07;;;;;;;;;;5857175;28;20046;-80
2023/12/31 16:51:21;;;;;;;8.48;5.38;;;;;;;;;;5824587;28;20056;-80
2023/12/31 16:54:11;;;;;;;7.45;5.75;;;;;;;;;;5840863;28;20077;-80
2023/12/31 16:57:02;;;;;;;12.23;8.55;;;;;;;;;;5842116;28;20240;-80
2023/12/31 16:59:53;;;;;;;6.95;4.72;;;;;;;;;;5842264;28;20504;-80
2023/12/31 17:02:44;;;;;;;3.58;3.13;;;;;;;;;;5840749;28;20050;-80